Time;durP1;ratioP1;P1;durP2;ratioP2;P2;SDS_P1;SDS_P2;PMS_P1;PMS_P2;Temp;Humidity;BMP_temperature;BMP_pressure;BME280_temperature;BME280_humidity;BME280_pressure;Samples;Min_cycle;Max_cycle;Signal;HPM_P1;HPM_P2
2021/04/20 00:00:16;;;;;;;9.50;4.85;;;5.00;77.60;;;;;;5003133;28;20049;-68
2021/04/20 00:02:42;;;;;;;10.88;5.00;;;4.90;77.60;;;;;;5004622;28;20621;-69
2021/04/20 00:05:12;;;;;;;9.38;4.53;;;4.90;78.00;;;;;;5003274;28;20037;-69
2021/04/20 00:07:38;;;;;;;10.40;4.97;;;4.80;78.80;;;;;;5004966;28;20034;-69
2021/04/20 00:10:08;;;;;;;8.75;4.80;;;4.80;78.60;;;;;;5002198;28;20550;-70
2021/04/20 00:12:34;;;;;;;8.05;4.57;;;4.80;78.40;;;;;;5004479;28;20021;-69
2021/04/20 00:14:59;;;;;;;10.20;4.97;;;4.70;78.60;;;;;;4985835;28;20038;-70
2021/04/20 00:17:25;;;;;;;13.77;4.65;;;4.70;78.90;;;;;;5001375;28;20041;-67
2021/04/20 00:19:51;;;;;;;10.48;4.90;;;4.70;79.60;;;;;;4988493;28;20023;-70
2021/04/20 00:22:16;;;;;;;11.15;4.78;;;4.60;79.20;;;;;;5008143;28;20030;-68
2021/04/20 00:24:42;;;;;;;12.48;5.43;;;4.60;79.30;;;;;;5006044;28;20510;-69
2021/04/20 00:27:07;;;;;;;9.55;4.85;;;4.60;79.70;;;;;;5008124;28;20022;-68
2021/04/20 00:29:33;;;;;;;11.10;4.72;;;4.50;80.00;;;;;;5008279;28;20030;-69
2021/04/20 00:31:59;;;;;;;10.85;4.80;;;4.50;79.80;;;;;;5005635;28;20033;-67
2021/04/20 00:34:24;;;;;;;10.35;4.97;;;4.50;79.20;;;;;;5007940;28;20033;-67
2021/04/20 00:36:50;;;;;;;13.23;5.10;;;4.50;80.00;;;;;;5007410;28;20056;-66
2021/04/20 00:39:15;;;;;;;10.77;4.82;;;4.40;80.70;;;;;;5007569;28;20559;-66
2021/04/20 00:41:41;;;;;;;11.75;5.35;;;4.40;81.60;;;;;;5008880;28;20081;-68
2021/04/20 00:44:07;;;;;;;9.30;4.93;;;4.30;81.90;;;;;;5007127;28;20048;-66
2021/04/20 00:46:32;;;;;;;11.07;5.38;;;4.30;81.60;;;;;;5007163;28;20106;-67
2021/04/20 00:48:58;;;;;;;13.98;5.47;;;4.30;82.00;;;;;;5005893;28;20030;-67
2021/04/20 00:51:23;;;;;;;15.52;5.45;;;4.20;80.90;;;;;;5008261;28;20034;-67
2021/04/20 00:53:49;;;;;;;11.07;4.88;;;4.20;81.50;;;;;;5004000;28;20638;-67
2021/04/20 00:56:19;;;;;;;10.82;4.82;;;4.10;82.00;;;;;;5008203;28;20390;-68
2021/04/20 00:58:45;;;;;;;9.07;4.63;;;4.10;82.30;;;;;;5001001;28;20375;-67
2021/04/20 01:01:11;;;;;;;9.93;5.10;;;4.10;82.30;;;;;;5006727;28;20026;-67
2021/04/20 01:03:37;;;;;;;11.30;4.60;;;4.00;81.90;;;;;;5007931;28;20052;-67
2021/04/20 01:06:03;;;;;;;11.63;4.95;;;4.00;82.30;;;;;;5006139;28;20175;-68
2021/04/20 01:08:29;;;;;;;12.50;5.53;;;3.90;82.60;;;;;;5009320;28;20417;-69
2021/04/20 01:10:57;;;;;;;9.40;4.60;;;3.90;82.30;;;;;;5009284;28;20732;-67
2021/04/20 01:13:29;;;;;;;13.45;5.45;;;3.80;82.70;;;;;;5009888;28;20018;-68
2021/04/20 01:15:55;;;;;;;18.30;5.25;;;3.80;82.90;;;;;;5008781;28;20136;-69
2021/04/20 01:18:30;;;;;;;11.52;5.57;;;3.70;83.30;;;;;;4986145;28;20111;-67
2021/04/20 01:21:00;;;;;;;13.70;5.15;;;3.70;83.50;;;;;;5006755;28;20034;-67
2021/04/20 01:23:40;;;;;;;10.48;5.85;;;3.70;83.80;;;;;;5009299;28;20033;-66
2021/04/20 01:26:08;;;;;;;15.77;5.88;;;3.60;83.70;;;;;;5017599;28;20041;-67
2021/04/20 01:28:35;;;;;;;13.68;6.28;;;3.60;84.10;;;;;;5007107;28;20609;-68
2021/04/20 01:31:01;;;;;;;13.18;5.85;;;3.60;84.90;;;;;;5005452;28;20056;-66
2021/04/20 01:33:26;;;;;;;14.00;6.30;;;3.60;84.90;;;;;;5008835;28;20044;-68
2021/04/20 01:35:52;;;;;;;11.65;5.53;;;3.60;85.10;;;;;;5007622;28;20513;-67
2021/04/20 01:38:18;;;;;;;12.40;6.22;;;3.60;85.20;;;;;;5008726;28;20049;-67
2021/04/20 01:40:44;;;;;;;17.67;6.55;;;3.70;85.30;;;;;;5008119;28;20121;-67
2021/04/20 01:43:13;;;;;;;12.80;5.65;;;3.80;85.80;;;;;;5009722;28;20157;-66
2021/04/20 01:45:40;;;;;;;11.98;5.72;;;3.70;85.70;;;;;;5013368;28;20076;-66
2021/04/20 01:48:06;;;;;;;13.52;6.63;;;3.70;85.10;;;;;;5007706;28;20042;-67
2021/04/20 01:50:32;;;;;;;18.55;5.97;;;3.70;85.40;;;;;;5007525;28;20429;-66
2021/04/20 01:52:57;;;;;;;13.93;6.28;;;3.60;85.00;;;;;;4995414;28;20041;-67
2021/04/20 01:55:23;;;;;;;14.23;5.90;;;3.50;85.20;;;;;;5002203;28;20026;-68
2021/04/20 01:57:52;;;;;;;13.32;6.80;;;3.40;85.60;;;;;;5009230;28;20022;-67
2021/04/20 02:00:19;;;;;;;18.17;6.88;;;3.40;86.30;;;;;;5005906;28;20109;-68
2021/04/20 02:02:45;;;;;;;14.23;6.93;;;3.30;86.50;;;;;;5007635;28;20076;-67
2021/04/20 02:05:11;;;;;;;14.63;6.97;;;3.30;86.80;;;;;;5016411;28;20029;-66
2021/04/20 02:07:38;;;;;;;14.75;6.85;;;3.20;86.90;;;;;;5022274;28;20132;-67
2021/04/20 02:10:06;;;;;;;15.32;7.13;;;3.20;86.80;;;;;;5009030;28;20034;-67
2021/04/20 02:12:34;;;;;;;12.32;6.82;;;3.10;87.10;;;;;;5008338;28;20077;-69
2021/04/20 02:15:01;;;;;;;17.98;7.88;;;3.10;87.20;;;;;;5007260;28;20084;-66
2021/04/20 02:17:28;;;;;;;17.02;8.55;;;3.10;87.60;;;;;;5005730;28;20120;-66
2021/04/20 02:19:54;;;;;;;18.08;7.95;;;3.10;88.20;;;;;;5008131;28;20030;-67
2021/04/20 02:22:20;;;;;;;18.30;7.88;;;3.10;88.30;;;;;;5008421;28;20338;-69
2021/04/20 02:24:46;;;;;;;16.15;7.95;;;3.10;88.50;;;;;;5008693;28;20157;-68
2021/04/20 02:27:12;;;;;;;19.25;8.48;;;3.00;88.30;;;;;;5008460;28;20033;-69
2021/04/20 02:29:38;;;;;;;23.52;9.00;;;3.00;88.60;;;;;;5007735;28;20040;-67
2021/04/20 02:32:05;;;;;;;18.88;8.68;;;3.00;88.90;;;;;;5027811;28;20027;-69
2021/04/20 02:34:31;;;;;;;18.73;9.85;;;3.00;89.10;;;;;;5020002;28;20126;-67
2021/04/20 02:36:57;;;;;;;22.42;10.45;;;3.00;89.30;;;;;;5007954;28;20120;-67
2021/04/20 02:39:23;;;;;;;29.10;10.25;;;2.90;89.40;;;;;;5006733;28;20441;-69
2021/04/20 02:41:50;;;;;;;19.73;9.65;;;3.00;89.90;;;;;;5008086;28;20434;-66
2021/04/20 02:44:16;;;;;;;22.58;10.20;;;3.00;89.70;;;;;;5010775;28;20022;-67
2021/04/20 02:46:44;;;;;;;18.35;10.65;;;2.90;89.70;;;;;;5013295;28;20022;-66
2021/04/20 02:49:11;;;;;;;22.77;10.40;;;2.90;89.80;;;;;;5002196;28;20034;-66
2021/04/20 02:51:39;;;;;;;20.52;10.18;;;2.80;89.90;;;;;;5007768;28;20022;-67
2021/04/20 02:54:06;;;;;;;19.33;10.38;;;2.80;89.90;;;;;;5007053;28;20112;-66
2021/04/20 02:56:33;;;;;;;20.75;9.40;;;2.80;89.60;;;;;;5007515;28;20398;-67
2021/04/20 02:59:01;;;;;;;21.63;10.57;;;2.70;89.60;;;;;;5005759;28;20014;-67
2021/04/20 03:01:36;;;;;;;15.38;9.38;;;2.70;89.60;;;;;;5006566;28;20486;-67
2021/04/20 03:04:03;;;;;;;16.55;9.95;;;2.60;89.20;;;;;;5014724;28;20210;-67
2021/04/20 03:06:29;;;;;;;20.60;10.30;;;2.60;89.40;;;;;;5010103;28;20037;-68
2021/04/20 03:08:56;;;;;;;23.20;10.68;;;2.60;90.00;;;;;;5006699;28;20037;-68
2021/04/20 03:11:23;;;;;;;20.00;10.60;;;2.60;90.20;;;;;;5007237;28;20518;-66
2021/04/20 03:13:49;;;;;;;22.00;11.10;;;2.50;90.10;;;;;;5006230;28;20025;-68
2021/04/20 03:16:16;;;;;;;20.55;10.63;;;2.40;90.00;;;;;;5007544;28;20022;-68
2021/04/20 03:18:42;;;;;;;22.90;11.15;;;2.40;90.00;;;;;;5003080;28;20104;-67
2021/04/20 03:21:11;;;;;;;21.98;11.80;;;2.30;90.20;;;;;;5003524;28;20080;-66
2021/04/20 03:23:37;;;;;;;24.52;11.20;;;2.30;90.40;;;;;;5010437;28;20113;-66
2021/04/20 03:26:07;;;;;;;25.52;11.93;;;2.20;90.30;;;;;;5006711;28;20033;-67
2021/04/20 03:28:32;;;;;;;25.65;11.60;;;2.20;90.20;;;;;;5007721;28;20018;-66
2021/04/20 03:30:59;;;;;;;22.23;11.23;;;2.10;90.40;;;;;;5005792;28;20099;-71
2021/04/20 03:33:30;;;;;;;28.83;13.52;;;2.10;90.50;;;;;;5012786;28;20511;-66
2021/04/20 03:35:56;;;;;;;;;;;2.10;90.60;;;;;;5011652;28;20493;-68
2021/04/20 03:38:56;;;;;;;24.20;11.98;;;2.10;91.00;;;;;;5005533;28;19909;-66
2021/04/20 03:41:32;;;;;;;26.27;12.82;;;2.10;91.10;;;;;;5003933;28;20494;-66
2021/04/20 03:44:01;;;;;;;28.90;15.18;;;2.10;91.20;;;;;;5003118;28;20049;-67
2021/04/20 03:46:37;;;;;;;34.65;15.90;;;2.10;91.40;;;;;;5006281;28;20038;-67
2021/04/20 03:49:21;;;;;;;32.88;16.13;;;2.10;91.30;;;;;;4996417;28;20034;-66
2021/04/20 03:51:50;;;;;;;28.52;15.48;;;2.10;91.30;;;;;;5006542;28;20125;-66
2021/04/20 03:54:17;;;;;;;34.30;17.98;;;2.10;91.50;;;;;;5005591;28;20487;-67
2021/04/20 03:56:47;;;;;;;37.72;18.02;;;2.10;91.60;;;;;;5007069;28;20022;-67
2021/04/20 03:59:15;;;;;;;29.63;17.95;;;2.10;91.70;;;;;;5004840;28;20132;-67
2021/04/20 04:01:44;;;;;;;36.20;19.17;;;2.10;91.60;;;;;;5005326;28;20092;-68
2021/04/20 04:04:17;;;;;;;40.78;20.48;;;2.10;91.70;;;;;;5004354;28;20034;-67
2021/04/20 04:06:43;;;;;;;38.40;20.33;;;2.00;91.60;;;;;;5006606;28;20034;-66
2021/04/20 04:09:11;;;;;;;36.53;19.27;;;2.00;91.70;;;;;;5003586;28;20110;-69
2021/04/20 04:11:44;;;;;;;37.50;20.55;;;2.00;91.80;;;;;;5005381;28;20037;-66
2021/04/20 04:14:11;;;;;;;34.30;19.88;;;2.00;91.80;;;;;;5004890;28;20034;-67
2021/04/20 04:16:39;;;;;;;41.17;21.50;;;2.00;91.80;;;;;;5006788;28;20109;-67
2021/04/20 04:19:05;;;;;;;38.78;20.17;;;2.00;92.00;;;;;;5003617;28;20026;-68
2021/04/20 04:21:43;;;;;;;37.40;20.60;;;2.00;92.00;;;;;;5006439;28;20302;-66
2021/04/20 04:24:11;;;;;;;41.78;20.83;;;2.00;91.80;;;;;;5005142;28;20521;-66
2021/04/20 04:26:37;;;;;;;39.22;19.90;;;2.00;91.90;;;;;;5003805;28;20053;-66
2021/04/20 04:29:04;;;;;;;39.28;22.27;;;2.00;91.90;;;;;;5002438;28;20037;-68
2021/04/20 04:31:33;;;;;;;43.42;21.17;;;2.00;91.90;;;;;;5006604;28;20505;-67
2021/04/20 04:34:00;;;;;;;37.80;20.40;;;1.90;91.80;;;;;;5002987;28;20033;-67
2021/04/20 04:36:26;;;;;;;39.70;21.15;;;1.90;91.90;;;;;;5003516;28;20438;-66
2021/04/20 04:38:52;;;;;;;39.38;21.15;;;2.00;92.00;;;;;;5001174;28;20062;-67
2021/04/20 04:41:18;;;;;;;43.53;22.45;;;2.00;92.10;;;;;;5006534;28;20053;-67
2021/04/20 04:43:44;;;;;;;39.08;21.10;;;2.10;92.20;;;;;;5004122;28;20029;-67
2021/04/20 04:46:10;;;;;;;38.65;21.77;;;2.10;92.00;;;;;;5004901;28;20445;-66
2021/04/20 04:48:37;;;;;;;44.90;23.33;;;2.10;92.00;;;;;;5001605;28;20033;-68
2021/04/20 04:51:03;;;;;;;39.67;21.80;;;2.10;91.90;;;;;;5003484;28;20109;-69
2021/04/20 04:53:31;;;;;;;43.22;21.60;;;2.10;91.80;;;;;;5002773;28;20056;-67
2021/04/20 04:55:59;;;;;;;38.28;20.80;;;2.10;91.80;;;;;;5005316;28;20030;-66
2021/04/20 04:58:26;;;;;;;38.88;21.80;;;2.10;91.80;;;;;;5003369;28;20359;-66
2021/04/20 05:00:55;;;;;;;40.67;21.70;;;2.10;91.80;;;;;;5002556;28;20104;-66
2021/04/20 05:03:24;;;;;;;40.15;21.10;;;2.20;91.80;;;;;;5001587;28;20276;-67
2021/04/20 05:05:55;;;;;;;43.20;22.63;;;2.20;91.90;;;;;;5008388;28;20107;-68
2021/04/20 05:08:20;;;;;;;50.58;23.10;;;2.20;91.90;;;;;;5006854;28;20029;-66
2021/04/20 05:10:46;;;;;;;43.28;23.52;;;2.30;92.10;;;;;;5006794;28;20482;-66
2021/04/20 05:13:12;;;;;;;41.67;21.08;;;2.40;92.20;;;;;;5007650;28;20021;-68
2021/04/20 05:15:37;;;;;;;39.00;20.48;;;2.40;92.20;;;;;;5006719;28;20127;-66
2021/04/20 05:18:09;;;;;;;40.63;20.75;;;2.40;92.10;;;;;;5003844;28;20033;-66
2021/04/20 05:20:37;;;;;;;;;;;2.60;92.10;;;;;;5006429;28;20611;-68
2021/04/20 05:23:03;;;;;;;36.38;20.83;;;2.60;92.00;;;;;;5005527;28;19967;-66
2021/04/20 05:25:29;;;;;;;43.20;21.30;;;2.70;92.10;;;;;;5008835;28;20030;-67
2021/04/20 05:27:55;;;;;;;39.30;20.67;;;2.70;91.90;;;;;;5009188;28;20037;-69
2021/04/20 05:30:21;;;;;;;44.28;22.48;;;2.80;91.70;;;;;;5006822;28;20031;-68
2021/04/20 05:32:52;;;;;;;45.17;21.63;;;2.90;91.60;;;;;;5007698;28;20026;-69
2021/04/20 05:35:19;;;;;;;41.50;20.38;;;2.90;91.40;;;;;;5008137;28;20048;-66
2021/04/20 05:37:46;;;;;;;36.00;21.08;;;3.00;91.40;;;;;;5009549;28;20034;-66
2021/04/20 05:40:15;;;;;;;36.35;20.60;;;3.20;91.50;;;;;;5007076;28;20045;-67
2021/04/20 05:42:41;;;;;;;35.72;20.65;;;3.30;91.50;;;;;;5006751;28;20029;-68
2021/04/20 05:45:08;;;;;;;40.47;19.63;;;3.40;91.40;;;;;;5008290;28;20037;-66
2021/04/20 05:47:38;;;;;;;33.42;18.23;;;3.60;91.00;;;;;;5006786;28;20124;-69
2021/04/20 05:50:06;;;;;;;30.73;17.10;;;3.70;90.70;;;;;;5002862;28;20475;-67
2021/04/20 05:52:36;;;;;;;29.50;17.90;;;3.80;90.40;;;;;;5006154;28;20518;-66
2021/04/20 05:55:03;;;;;;;27.10;16.77;;;4.00;90.30;;;;;;5003199;28;20026;-67
2021/04/20 05:57:28;;;;;;;29.27;15.98;;;4.20;90.00;;;;;;5009317;28;20018;-66
2021/04/20 05:59:56;;;;;;;25.27;14.70;;;4.20;89.70;;;;;;5007020;28;20053;-66
2021/04/20 06:02:23;;;;;;;23.83;15.30;;;4.40;89.00;;;;;;5005796;28;20021;-69
2021/04/20 06:04:58;;;;;;;27.27;14.98;;;4.60;89.10;;;;;;5007514;28;20402;-66
2021/04/20 06:07:24;;;;;;;32.10;14.77;;;4.60;88.70;;;;;;5009113;28;20097;-68
2021/04/20 06:09:50;;;;;;;21.27;13.10;;;4.80;88.40;;;;;;4999733;28;20505;-68
2021/04/20 06:12:16;;;;;;;22.98;12.25;;;4.90;87.20;;;;;;5007253;28;20121;-68
2021/04/20 06:14:42;;;;;;;21.05;12.18;;;5.00;87.00;;;;;;5005218;28;20124;-69
2021/04/20 06:17:09;;;;;;;23.58;11.45;;;5.20;86.80;;;;;;5005228;28;20109;-67
2021/04/20 06:19:36;;;;;;;20.45;10.70;;;5.30;86.10;;;;;;5001979;28;20022;-68
2021/04/20 06:22:02;;;;;;;20.50;10.10;;;5.50;85.50;;;;;;5002463;28;20463;-67
2021/04/20 06:24:30;;;;;;;19.02;10.27;;;5.70;85.70;;;;;;5005772;28;20053;-68
2021/04/20 06:26:58;;;;;;;19.00;9.15;;;5.90;86.30;;;;;;5008777;28;20049;-68
2021/04/20 06:29:24;;;;;;;16.85;10.13;;;6.00;84.20;;;;;;5005754;28;20037;-68
2021/04/20 06:31:49;;;;;;;18.48;9.80;;;6.10;83.40;;;;;;5006081;28;20301;-68
2021/04/20 06:34:15;;;;;;;18.15;8.52;;;6.30;84.00;;;;;;5004606;28;20286;-69
2021/04/20 06:36:41;;;;;;;16.50;8.48;;;6.30;82.20;;;;;;5008731;28;20022;-68
2021/04/20 06:39:07;;;;;;;16.75;8.15;;;6.30;81.70;;;;;;5006518;28;20033;-67
2021/04/20 06:41:35;;;;;;;17.60;8.73;;;6.50;82.60;;;;;;5007699;28;20026;-67
2021/04/20 06:44:14;;;;;;;14.82;8.40;;;6.60;80.60;;;;;;5003971;28;20079;-67
2021/04/20 06:46:48;;;;;;;18.42;8.32;;;7.10;81.50;;;;;;5008469;28;20052;-67
2021/04/20 06:49:23;;;;;;;16.40;8.05;;;7.60;81.00;;;;;;5004915;28;20037;-67
2021/04/20 06:51:52;;;;;;;17.70;7.78;;;7.60;78.70;;;;;;5003652;28;20030;-67
2021/04/20 06:54:33;;;;;;;15.23;7.75;;;8.10;79.50;;;;;;5007025;28;20036;-67
2021/04/20 06:57:10;;;;;;;14.63;7.47;;;8.20;78.10;;;;;;5005793;28;20018;-68
2021/04/20 06:59:41;;;;;;;17.52;8.00;;;8.30;75.90;;;;;;5001520;28;20078;-68
2021/04/20 07:02:34;;;;;;;14.32;7.03;;;9.20;75.90;;;;;;5006834;28;20034;-68
2021/04/20 07:05:01;;;;;;;16.35;7.93;;;9.10;74.40;;;;;;5006859;28;20021;-67
2021/04/20 07:07:37;;;;;;;13.15;6.57;;;9.40;73.70;;;;;;5008483;28;20450;-68
2021/04/20 07:10:15;;;;;;;9.65;6.35;;;9.50;73.90;;;;;;5006468;28;20073;-67
2021/04/20 07:12:44;;;;;;;13.43;6.47;;;9.80;72.60;;;;;;5007510;28;20053;-67
2021/04/20 07:15:15;;;;;;;11.40;5.80;;;9.80;69.10;;;;;;5006542;28;20029;-69
2021/04/20 07:17:50;;;;;;;12.38;6.10;;;9.70;69.40;;;;;;5006569;28;20049;-68
2021/04/20 07:20:30;;;;;;;11.90;6.20;;;10.20;70.40;;;;;;5005896;28;20101;-68
2021/04/20 07:23:11;;;;;;;13.38;6.35;;;10.40;68.50;;;;;;5006260;28;20030;-68
2021/04/20 07:25:58;;;;;;;12.00;5.57;;;10.50;68.60;;;;;;5006913;28;20383;-68
2021/04/20 07:28:45;;;;;;;13.75;5.55;;;10.80;68.10;;;;;;5006250;28;20498;-69
2021/04/20 07:31:41;;;;;;;10.77;5.32;;;11.30;65.00;;;;;;5005457;28;20490;-68
2021/04/20 07:34:15;;;;;;;8.82;5.85;;;11.40;64.50;;;;;;5004888;28;20053;-69
2021/04/20 07:36:58;;;;;;;10.27;5.28;;;11.40;65.50;;;;;;5003995;28;20026;-67
2021/04/20 07:39:24;;;;;;;8.98;4.70;;;12.00;61.20;;;;;;5005893;28;20037;-68
2021/04/20 07:41:59;;;;;;;11.27;5.03;;;12.00;63.00;;;;;;5007230;28;20018;-68
2021/04/20 07:44:59;;;;;;;11.30;4.60;;;12.40;62.70;;;;;;5005210;28;20072;-68
2021/04/20 07:47:29;;;;;;;10.25;4.68;;;12.30;57.10;;;;;;5004903;28;20109;-68
2021/04/20 07:50:05;;;;;;;8.93;4.03;;;12.70;57.00;;;;;;5005564;28;20030;-67
2021/04/20 07:52:55;;;;;;;9.00;4.20;;;12.80;56.40;;;;;;5006223;28;20030;-68
2021/04/20 07:55:25;;;;;;;7.88;4.07;;;12.70;57.00;;;;;;5004337;28;20040;-70
2021/04/20 07:57:57;;;;;;;11.02;4.78;;;13.20;55.50;;;;;;5003127;28;20029;-68
2021/04/20 08:00:48;;;;;;;9.35;4.03;;;13.70;54.50;;;;;;5005434;28;20037;-67
2021/04/20 08:03:26;;;;;;;10.15;4.32;;;13.50;55.30;;;;;;5002608;28;20029;-67
2021/04/20 08:06:02;;;;;;;10.10;3.90;;;13.80;52.20;;;;;;5004338;28;20208;-67
2021/04/20 08:08:33;;;;;;;7.47;3.58;;;13.60;53.20;;;;;;5006015;28;20037;-68
2021/04/20 08:11:07;;;;;;;10.20;4.45;;;13.70;52.30;;;;;;5001236;28;20025;-68
2021/04/20 08:14:04;;;;;;;12.43;3.60;;;14.10;51.90;;;;;;5004279;28;20217;-69
2021/04/20 08:16:41;;;;;;;10.38;3.95;;;14.30;51.00;;;;;;4999662;28;20022;-69
2021/04/20 08:19:09;;;;;;;6.50;2.95;;;14.20;50.70;;;;;;5002430;28;20435;-67
2021/04/20 08:21:43;;;;;;;8.80;3.55;;;14.30;48.80;;;;;;5005457;28;20525;-69
2021/04/20 08:24:15;;;;;;;10.05;3.47;;;14.70;44.60;;;;;;5005266;28;20045;-69
2021/04/20 08:26:47;;;;;;;7.90;3.55;;;14.50;45.40;;;;;;5003691;28;20380;-69
2021/04/20 08:29:22;;;;;;;7.28;3.00;;;14.80;47.90;;;;;;5004982;28;20166;-68
2021/04/20 08:31:55;;;;;;;7.50;3.13;;;14.60;45.60;;;;;;5005019;28;20485;-68
2021/04/20 08:34:32;;;;;;;6.05;3.08;;;15.00;42.50;;;;;;5005328;28;20470;-68
2021/04/20 08:37:00;;;;;;;7.85;3.42;;;14.90;42.40;;;;;;5006363;28;20103;-68
2021/04/20 08:39:36;;;;;;;7.18;3.28;;;15.30;45.70;;;;;;5006714;28;20029;-68
2021/04/20 08:42:25;;;;;;;7.82;3.30;;;15.30;46.50;;;;;;5010089;28;20177;-67
2021/04/20 08:45:08;;;;;;;8.15;3.70;;;15.10;45.80;;;;;;5009349;28;20030;-69
2021/04/20 08:47:41;;;;;;;7.90;3.08;;;15.30;46.30;;;;;;5002814;28;20112;-68
2021/04/20 08:50:11;;;;;;;7.72;3.17;;;15.20;47.20;;;;;;5003390;28;20030;-68
2021/04/20 08:53:11;;;;;;;9.90;3.60;;;15.50;43.60;;;;;;5007941;28;20029;-67
2021/04/20 08:55:48;;;;;;;5.30;2.95;;;15.70;45.20;;;;;;5009879;28;20026;-67
2021/04/20 08:58:28;;;;;;;6.90;2.83;;;16.00;43.70;;;;;;5008199;28;20108;-69
2021/04/20 09:01:26;;;;;;;8.02;3.13;;;16.20;43.30;;;;;;5009083;28;20034;-68
2021/04/20 09:04:11;;;;;;;5.38;2.45;;;16.50;41.60;;;;;;5007837;28;20034;-71
2021/04/20 09:06:50;;;;;;;6.22;2.92;;;16.30;40.90;;;;;;5009557;28;20061;-71
2021/04/20 09:09:17;;;;;;;5.82;2.70;;;16.60;41.00;;;;;;5003154;28;20109;-68
2021/04/20 09:11:56;;;;;;;6.70;3.22;;;16.90;41.10;;;;;;5006751;28;20124;-71
2021/04/20 09:14:28;;;;;;;9.57;2.60;;;16.30;38.70;;;;;;5007938;28;20410;-68
2021/04/20 09:17:04;;;;;;;6.95;2.88;;;16.70;41.10;;;;;;5005910;28;20026;-71
2021/04/20 09:20:01;;;;;;;6.65;2.42;;;16.90;39.20;;;;;;5007694;28;20026;-69
2021/04/20 09:22:55;;;;;;;7.50;2.75;;;16.60;38.20;;;;;;5004958;28;20042;-68
2021/04/20 09:25:42;;;;;;;11.90;2.78;;;16.60;39.20;;;;;;5003187;28;20058;-68
2021/04/20 09:28:13;;;;;;;7.65;2.88;;;17.10;37.10;;;;;;5006888;28;20026;-68
2021/04/20 09:30:52;;;;;;;;;;;16.90;37.00;;;;;;5009321;28;20030;-69
2021/04/20 09:33:26;;;;;;;13.60;3.28;;;17.00;36.30;;;;;;5006764;28;19918;-69
2021/04/20 09:35:54;;;;;;;9.38;3.33;;;16.60;36.80;;;;;;5007700;28;20390;-69
2021/04/20 09:38:22;;;;;;;7.38;2.95;;;17.00;36.90;;;;;;5008751;28;20022;-69
2021/04/20 09:40:49;;;;;;;6.70;3.15;;;17.50;36.20;;;;;;5007553;28;20034;-68
2021/04/20 09:43:32;;;;;;;10.43;3.60;;;17.20;38.10;;;;;;5007947;28;20046;-68
2021/04/20 09:46:16;;;;;;;8.77;3.08;;;17.60;37.40;;;;;;5004774;28;20499;-71
2021/04/20 09:48:58;;;;;;;6.72;2.50;;;17.40;36.60;;;;;;5003919;28;20049;-68
2021/04/20 09:51:29;;;;;;;12.15;2.97;;;17.80;37.10;;;;;;5005486;28;20087;-69
2021/04/20 09:54:22;;;;;;;8.13;2.90;;;17.70;36.70;;;;;;5007680;28;20033;-69
2021/04/20 09:56:54;;;;;;;7.75;3.08;;;17.70;36.50;;;;;;5005912;28;20100;-70
2021/04/20 09:59:52;;;;;;;7.47;2.95;;;17.40;35.40;;;;;;5006104;28;20022;-70
2021/04/20 10:02:39;;;;;;;6.03;2.53;;;17.70;36.70;;;;;;5006439;28;20041;-71
2021/04/20 10:05:33;;;;;;;5.60;3.03;;;17.30;35.50;;;;;;5006579;28;20046;-71
2021/04/20 10:08:23;;;;;;;5.88;2.53;;;17.30;34.70;;;;;;5007200;28;20294;-69
2021/04/20 10:11:07;;;;;;;6.78;2.47;;;17.80;37.00;;;;;;5007188;28;20395;-70
2021/04/20 10:13:55;;;;;;;5.50;2.72;;;17.90;35.20;;;;;;4993146;28;20514;-69
2021/04/20 10:16:30;;;;;;;7.65;2.83;;;18.20;36.50;;;;;;5005490;28;20214;-69
2021/04/20 10:19:01;;;;;;;7.38;2.75;;;18.10;35.70;;;;;;5002619;28;20433;-71
2021/04/20 10:21:47;;;;;;;8.82;3.03;;;18.00;35.50;;;;;;5009007;28;20398;-70
2021/04/20 10:24:23;;;;;;;8.57;2.42;;;18.20;36.00;;;;;;5005301;28;20025;-70
2021/04/20 10:27:08;;;;;;;7.10;2.80;;;18.30;35.00;;;;;;5007398;28;20029;-69
2021/04/20 10:29:37;;;;;;;7.63;2.58;;;18.90;34.20;;;;;;4996160;28;20018;-68
2021/04/20 10:32:38;;;;;;;8.63;2.50;;;18.70;33.60;;;;;;4998265;28;20026;-68
2021/04/20 10:35:06;;;;;;;8.95;3.10;;;18.90;34.50;;;;;;5002875;28;20101;-69
2021/04/20 10:37:41;;;;;;;7.55;3.03;;;18.70;34.20;;;;;;5007540;28;20042;-68
2021/04/20 10:40:31;;;;;;;5.13;2.55;;;18.50;32.50;;;;;;5005830;28;20675;-70
2021/04/20 10:43:07;;;;;;;6.55;2.10;;;18.40;33.00;;;;;;5006466;28;20061;-71
2021/04/20 10:45:33;;;;;;;5.18;2.20;;;18.60;32.00;;;;;;5002154;28;20029;-69
2021/04/20 10:48:01;;;;;;;5.78;2.25;;;18.70;33.80;;;;;;5004219;28;20022;-72
2021/04/20 10:50:32;;;;;;;6.30;2.13;;;18.60;31.40;;;;;;5006689;28;20406;-69
2021/04/20 10:53:04;;;;;;;5.13;2.30;;;18.60;34.60;;;;;;4992053;28;20403;-69
2021/04/20 10:55:33;;;;;;;6.22;2.38;;;19.00;32.90;;;;;;5007648;28;20026;-70
2021/04/20 10:58:00;;;;;;;6.10;2.30;;;19.00;33.10;;;;;;5008319;28;20241;-69
2021/04/20 11:00:32;;;;;;;5.60;2.33;;;19.50;32.40;;;;;;4986774;28;20487;-69
2021/04/20 11:02:58;;;;;;;5.95;2.50;;;19.40;30.30;;;;;;5006428;28;20117;-68
2021/04/20 11:05:25;;;;;;;4.53;2.22;;;19.50;30.60;;;;;;5000661;28;20387;-70
2021/04/20 11:07:52;;;;;;;4.28;1.88;;;19.30;31.10;;;;;;5007640;28;20044;-70
2021/04/20 11:10:19;;;;;;;5.47;1.98;;;19.60;30.50;;;;;;5003871;28;20144;-69
2021/04/20 11:12:48;;;;;;;6.50;2.15;;;19.60;31.50;;;;;;5006691;28;20102;-70
2021/04/20 11:15:15;;;;;;;6.60;2.58;;;19.70;30.70;;;;;;5006034;28;20033;-72
2021/04/20 11:17:56;;;;;;;9.20;2.42;;;19.90;31.40;;;;;;5002211;28;20025;-72
2021/04/20 11:20:27;;;;;;;;;;;19.60;28.30;;;;;;5006410;28;20026;-71
2021/04/20 11:23:11;;;;;;;8.20;2.35;;;19.70;29.50;;;;;;5007176;28;19905;-70
2021/04/20 11:26:01;;;;;;;5.13;2.10;;;20.00;29.90;;;;;;5006936;28;20037;-69
2021/04/20 11:28:41;;;;;;;4.38;1.92;;;20.30;29.80;;;;;;5006359;28;20196;-70
2021/04/20 11:31:23;;;;;;;6.55;2.08;;;20.40;29.20;;;;;;5007466;28;20050;-70
2021/04/20 11:33:58;;;;;;;5.55;2.50;;;20.60;31.40;;;;;;5005564;28;20537;-73
2021/04/20 11:36:39;;;;;;;3.67;1.85;;;20.50;29.20;;;;;;5007080;28;20025;-72
2021/04/20 11:39:29;;;;;;;3.58;1.90;;;20.20;27.50;;;;;;5005898;28;20021;-71
2021/04/20 11:42:06;;;;;;;6.00;2.50;;;20.80;28.70;;;;;;5004547;28;20471;-70
2021/04/20 11:44:33;;;;;;;3.88;2.03;;;21.10;30.80;;;;;;5005852;28;20113;-72
2021/04/20 11:47:00;;;;;;;6.45;2.08;;;21.20;28.50;;;;;;5002701;28;20040;-72
2021/04/20 11:49:30;;;;;;;2.53;1.60;;;21.50;29.30;;;;;;5001319;28;20034;-69
2021/04/20 11:51:57;;;;;;;6.22;1.95;;;21.60;28.00;;;;;;5006470;28;20053;-71
2021/04/20 11:54:26;;;;;;;5.43;1.73;;;21.40;28.40;;;;;;5005264;28;20033;-70
2021/04/20 11:56:58;;;;;;;7.18;2.33;;;21.20;26.90;;;;;;5005746;28;20565;-69
2021/04/20 11:59:24;;;;;;;5.93;1.65;;;21.30;26.60;;;;;;5005475;28;20080;-69
2021/04/20 12:01:50;;;;;;;5.57;2.00;;;21.70;26.30;;;;;;4989725;28;20044;-73
2021/04/20 12:04:23;;;;;;;6.00;2.20;;;21.70;26.70;;;;;;4998350;28;20041;-70
2021/04/20 12:06:51;;;;;;;4.90;2.03;;;22.10;28.50;;;;;;5004388;28;20115;-69
2021/04/20 12:09:25;;;;;;;8.15;2.28;;;22.50;28.50;;;;;;5003075;28;20635;-72
2021/04/20 12:11:53;;;;;;;3.60;1.77;;;22.60;24.90;;;;;;5002510;28;20041;-71
2021/04/20 12:14:21;;;;;;;4.13;1.83;;;22.00;25.40;;;;;;5004044;28;20022;-71
2021/04/20 12:16:48;;;;;;;5.15;2.00;;;21.80;27.80;;;;;;5008843;28;20096;-69
2021/04/20 12:19:24;;;;;;;6.82;1.80;;;21.80;25.70;;;;;;5003370;28;20034;-69
2021/04/20 12:21:55;;;;;;;5.10;2.28;;;22.60;26.10;;;;;;5008887;28;20030;-72
2021/04/20 12:24:22;;;;;;;;;;;21.90;26.20;;;;;;5006981;28;20072;-71
2021/04/20 12:27:08;;;;;;;6.20;2.28;;;22.00;27.90;;;;;;5008329;28;19959;-70
2021/04/20 12:29:41;;;;;;;5.00;1.95;;;22.70;27.60;;;;;;5004535;28;20028;-69
2021/04/20 12:32:12;;;;;;;4.47;2.05;;;22.60;25.70;;;;;;5006694;28;20061;-68
2021/04/20 12:34:38;;;;;;;6.43;1.85;;;22.70;26.20;;;;;;5007735;28;20029;-72
2021/04/20 12:37:04;;;;;;;7.00;2.28;;;23.10;25.40;;;;;;5006958;28;20030;-70
2021/04/20 12:39:47;;;;;;;6.03;2.35;;;23.10;23.50;;;;;;5008689;28;20092;-70
2021/04/20 12:42:17;;;;;;;5.78;2.08;;;22.90;25.70;;;;;;5008306;28;20072;-71
2021/04/20 12:44:47;;;;;;;9.68;2.33;;;23.00;26.30;;;;;;5007198;28;20045;-69
2021/04/20 12:47:15;;;;;;;4.68;1.88;;;24.00;26.00;;;;;;5007609;28;20302;-68
2021/04/20 12:49:47;;;;;;;6.00;1.73;;;23.70;24.20;;;;;;5005577;28;20029;-68
2021/04/20 12:52:17;;;;;;;7.10;1.90;;;23.60;24.30;;;;;;5008027;28;20041;-67
2021/04/20 12:54:46;;;;;;;5.38;1.83;;;23.40;24.90;;;;;;5007256;28;20395;-67
2021/04/20 12:57:19;;;;;;;4.82;2.22;;;24.10;24.70;;;;;;5008653;28;20162;-67
2021/04/20 12:59:48;;;;;;;8.23;2.45;;;23.70;24.10;;;;;;5002661;28;20543;-69
2021/04/20 13:02:22;;;;;;;6.55;2.28;;;24.00;25.20;;;;;;5008453;28;20033;-68
2021/04/20 13:04:49;;;;;;;5.40;2.47;;;24.00;24.70;;;;;;5006732;28;20314;-73
2021/04/20 13:07:15;;;;;;;6.35;2.05;;;24.40;23.20;;;;;;5009072;28;20552;-70